createdAt,value
2018-12-21T00:02:17.894Z,1.50
2018-12-21T00:04:45.440Z,1.70
2018-12-21T00:07:13.183Z,1.60
2018-12-21T00:09:40.750Z,1.60
2018-12-21T00:12:08.296Z,1.50
2018-12-21T00:14:36.482Z,1.40
2018-12-21T00:17:04.060Z,1.30
2018-12-21T00:19:32.193Z,1.30
2018-12-21T00:21:59.731Z,1.30
2018-12-21T00:24:27.694Z,1.40
2018-12-21T00:26:55.480Z,1.30
2018-12-21T00:29:23.322Z,1.40
2018-12-21T00:31:56.701Z,1.40
2018-12-21T00:34:30.348Z,1.50
2018-12-21T00:37:03.887Z,1.60
2018-12-21T00:39:38.054Z,1.40
2018-12-21T00:42:08.028Z,1.00
2018-12-21T00:44:36.139Z,0.80
2018-12-21T00:47:05.909Z,0.80
2018-12-21T00:49:33.909Z,0.80
2018-12-21T00:52:01.782Z,0.80
2018-12-21T00:54:29.774Z,0.70
2018-12-21T00:56:57.406Z,0.70
2018-12-21T00:59:25.986Z,0.80
2018-12-21T01:01:53.539Z,1.00
2018-12-21T01:04:21.642Z,1.10
2018-12-21T01:06:49.162Z,1.00
2018-12-21T01:09:17.027Z,0.80
2018-12-21T01:11:45.032Z,0.70
2018-12-21T01:14:12.855Z,0.50
2018-12-21T01:16:40.745Z,1.20
2018-12-21T01:19:08.611Z,1.40
2018-12-21T01:21:38.935Z,1.50
2018-12-21T01:24:05.731Z,1.60
2018-12-21T01:26:33.497Z,1.60
2018-12-21T01:29:01.038Z,1.50
2018-12-21T01:31:28.890Z,1.50
2018-12-21T01:33:57.031Z,1.70
2018-12-21T01:36:24.670Z,1.50
2018-12-21T01:38:52.316Z,1.60
2018-12-21T01:41:20.034Z,1.50
2018-12-21T01:43:47.569Z,1.50
2018-12-21T01:46:15.104Z,1.60
2018-12-21T01:48:42.831Z,1.70
2018-12-21T01:51:10.721Z,1.90
2018-12-21T01:53:38.492Z,2.00
2018-12-21T01:56:06.219Z,2.10
2018-12-21T01:58:33.835Z,2.10
2018-12-21T02:01:01.469Z,2.00
2018-12-21T02:03:29.218Z,2.00
2018-12-21T02:05:56.859Z,2.20
2018-12-21T02:08:24.487Z,2.30
2018-12-21T02:10:52.590Z,2.20
2018-12-21T02:13:20.130Z,2.10
2018-12-21T02:15:48.054Z,2.30
2018-12-21T02:18:15.615Z,2.30
2018-12-21T02:20:43.166Z,2.80
2018-12-21T02:23:10.694Z,2.80
2018-12-21T02:25:38.619Z,2.80
2018-12-21T02:28:06.347Z,2.80
2018-12-21T02:30:34.275Z,2.80
2018-12-21T02:33:02.162Z,3.10
2018-12-21T02:35:29.698Z,3.10
2018-12-21T02:37:57.727Z,3.10
2018-12-21T02:40:25.304Z,3.00
2018-12-21T02:42:52.992Z,3.00
2018-12-21T02:45:20.829Z,3.50
2018-12-21T02:47:48.541Z,2.80
2018-12-21T02:50:16.087Z,2.70
2018-12-21T02:52:43.841Z,2.50
2018-12-21T02:55:11.539Z,2.40
2018-12-21T02:57:39.322Z,2.20
2018-12-21T03:00:08.419Z,2.10
2018-12-21T03:02:36.339Z,2.10
2018-12-21T03:05:05.837Z,2.00
2018-12-21T03:07:33.535Z,1.70
2018-12-21T03:17:24.549Z,1.70
2018-12-21T03:22:19.806Z,1.10
2018-12-21T03:24:47.514Z,1.00
2018-12-21T03:27:15.259Z,1.50
2018-12-21T03:29:42.989Z,1.80
2018-12-21T03:32:10.558Z,1.80
2018-12-21T03:34:38.319Z,1.90
2018-12-21T03:37:06.043Z,2.10
2018-12-21T03:39:33.679Z,2.10
2018-12-21T03:42:01.214Z,1.90
2018-12-21T03:44:29.697Z,1.90
2018-12-21T03:46:57.267Z,2.30
2018-12-21T03:49:24.795Z,2.40
2018-12-21T03:51:52.678Z,2.30
2018-12-21T03:54:20.547Z,2.30
2018-12-21T03:56:48.086Z,2.20
2018-12-21T03:59:15.616Z,2.20
2018-12-21T04:01:43.289Z,2.10
2018-12-21T04:04:10.866Z,2.00
2018-12-21T04:06:39.015Z,1.90
2018-12-21T04:09:06.999Z,1.90
2018-12-21T04:11:34.547Z,2.00
2018-12-21T04:14:02.120Z,2.40
2018-12-21T04:16:30.063Z,2.40
2018-12-21T04:18:57.763Z,2.40
2018-12-21T04:21:26.558Z,2.40
2018-12-21T04:23:54.273Z,2.30
2018-12-21T04:26:21.807Z,2.20
2018-12-21T04:28:49.487Z,2.20
2018-12-21T04:31:17.792Z,2.20
2018-12-21T04:33:45.516Z,2.30
2018-12-21T04:36:13.339Z,2.30
2018-12-21T04:38:41.112Z,2.30
2018-12-21T04:41:08.839Z,2.20
2018-12-21T04:43:36.554Z,2.10
2018-12-21T04:46:04.824Z,2.00
2018-12-21T04:48:32.643Z,1.90
2018-12-21T04:51:00.174Z,2.00
2018-12-21T04:53:28.032Z,2.10
2018-12-21T04:55:55.831Z,2.10
2018-12-21T04:58:23.741Z,1.80
2018-12-21T05:00:51.992Z,1.70
2018-12-21T05:03:19.654Z,1.60
2018-12-21T05:05:47.227Z,1.60
2018-12-21T05:08:14.883Z,1.50
2018-12-21T05:10:42.862Z,1.90
2018-12-21T05:13:10.726Z,2.30
2018-12-21T05:15:38.295Z,2.50
2018-12-21T05:18:05.825Z,2.70
2018-12-21T05:20:33.363Z,2.60
2018-12-21T05:23:00.944Z,2.50
2018-12-21T05:25:28.547Z,2.50
2018-12-21T05:27:56.230Z,2.60
2018-12-21T05:30:23.923Z,2.60
2018-12-21T05:32:51.550Z,2.70
2018-12-21T05:35:19.086Z,2.70
2018-12-21T05:37:46.982Z,2.90
2018-12-21T05:40:15.148Z,2.80
2018-12-21T05:42:42.837Z,2.60
2018-12-21T05:45:10.762Z,2.50
2018-12-21T05:47:38.324Z,2.60
2018-12-21T05:50:06.231Z,2.50
2018-12-21T05:52:34.173Z,2.40
2018-12-21T05:55:01.954Z,2.40
2018-12-21T05:57:29.502Z,2.50
2018-12-21T05:59:57.449Z,2.30
2018-12-21T06:02:25.191Z,2.30
2018-12-21T06:04:52.839Z,2.40
2018-12-21T06:07:20.732Z,2.40
2018-12-21T06:09:48.516Z,2.40
2018-12-21T06:12:16.141Z,2.30
2018-12-21T06:14:43.711Z,2.20
2018-12-21T06:17:11.346Z,2.00
2018-12-21T06:19:38.895Z,2.00
2018-12-21T06:22:06.482Z,1.90
2018-12-21T06:24:34.328Z,1.80
2018-12-21T06:27:01.861Z,1.80
2018-12-21T06:29:30.028Z,1.80
2018-12-21T06:31:57.666Z,1.80
2018-12-21T06:34:25.370Z,1.80
2018-12-21T06:36:53.074Z,1.70
2018-12-21T06:39:20.904Z,1.70
2018-12-21T06:41:48.718Z,1.70
2018-12-21T06:44:16.415Z,2.00
2018-12-21T06:46:44.242Z,2.00
2018-12-21T06:49:11.779Z,1.70
2018-12-21T06:51:39.731Z,1.60
2018-12-21T06:54:07.439Z,1.80
2018-12-21T06:56:35.114Z,1.80
2018-12-21T06:59:03.415Z,1.90
2018-12-21T07:01:31.226Z,2.60
2018-12-21T07:03:58.773Z,2.60
2018-12-21T07:06:26.843Z,2.80
2018-12-21T07:08:54.369Z,2.90
2018-12-21T07:11:21.939Z,2.80
2018-12-21T07:13:50.235Z,3.00
2018-12-21T07:16:17.771Z,3.00
2018-12-21T07:18:45.494Z,3.10
2018-12-21T07:21:13.435Z,3.00
2018-12-21T07:23:41.224Z,3.00
2018-12-21T07:26:08.759Z,3.00
2018-12-21T07:28:36.341Z,3.00
2018-12-21T07:31:03.905Z,3.00
2018-12-21T07:33:31.694Z,3.00
2018-12-21T07:36:08.129Z,3.00
2018-12-21T07:38:29.623Z,3.20
2018-12-21T07:40:57.328Z,3.20
2018-12-21T07:43:24.980Z,3.20
2018-12-21T07:45:52.710Z,3.10
2018-12-21T07:48:20.246Z,3.10
2018-12-21T07:50:47.828Z,3.20
2018-12-21T07:53:15.583Z,3.40
2018-12-21T07:55:43.268Z,3.40
2018-12-21T07:58:11.154Z,3.50
2018-12-21T08:00:39.025Z,3.50
2018-12-21T08:03:06.688Z,3.60
2018-12-21T08:05:34.262Z,3.60
2018-12-21T08:08:01.801Z,3.60
2018-12-21T08:10:29.343Z,3.60
2018-12-21T08:12:57.202Z,3.40
2018-12-21T08:15:24.979Z,3.40
2018-12-21T08:17:52.798Z,3.40
2018-12-21T08:20:20.373Z,3.40
2018-12-21T08:22:47.977Z,3.40
2018-12-21T08:25:15.606Z,3.40
2018-12-21T08:27:43.195Z,3.40
2018-12-21T08:30:11.238Z,3.40
2018-12-21T08:32:38.967Z,3.30
2018-12-21T08:35:06.555Z,3.20
2018-12-21T08:37:34.559Z,3.10
2018-12-21T08:40:02.390Z,3.10
2018-12-21T08:42:30.298Z,3.30
2018-12-21T08:44:58.119Z,3.40
2018-12-21T08:47:25.903Z,3.50
2018-12-21T08:49:54.281Z,3.60
2018-12-21T08:52:21.835Z,3.70
2018-12-21T08:54:49.485Z,3.90
2018-12-21T08:57:17.267Z,4.40
2018-12-21T08:59:44.802Z,4.00
2018-12-21T09:02:12.333Z,4.00
2018-12-21T09:04:40.224Z,3.80
2018-12-21T09:07:07.913Z,3.60
2018-12-21T09:09:35.724Z,3.90
2018-12-21T09:12:03.417Z,4.50
2018-12-21T09:14:30.947Z,4.80
2018-12-21T09:16:58.920Z,6.50
2018-12-21T09:19:26.635Z,6.70
2018-12-21T09:21:54.575Z,7.80
2018-12-21T09:24:22.327Z,8.00
2018-12-21T09:26:50.236Z,8.90
2018-12-21T09:29:18.045Z,9.40
2018-12-21T09:31:45.896Z,8.90
2018-12-21T09:34:13.618Z,8.50
2018-12-21T09:36:42.935Z,9.20
2018-12-21T09:39:10.777Z,9.70
2018-12-21T09:41:38.519Z,8.70
2018-12-21T09:44:06.243Z,9.40
2018-12-21T09:46:33.799Z,8.40
2018-12-21T09:49:01.512Z,8.00
2018-12-21T09:51:29.485Z,7.60
2018-12-21T09:53:57.102Z,7.40
2018-12-21T09:56:25.038Z,7.90
2018-12-21T09:58:52.886Z,7.60
2018-12-21T10:01:20.498Z,7.30
2018-12-21T10:03:48.312Z,7.00
2018-12-21T10:06:16.076Z,6.80
2018-12-21T10:08:43.942Z,6.80
2018-12-21T10:11:11.850Z,7.00
2018-12-21T10:13:39.454Z,7.30
2018-12-21T10:16:07.399Z,7.10
2018-12-21T10:18:35.779Z,6.80
2018-12-21T10:21:04.004Z,5.90
2018-12-21T10:23:31.895Z,5.80
2018-12-21T10:25:59.465Z,5.80
2018-12-21T10:28:27.446Z,5.80
2018-12-21T10:30:55.323Z,5.90
2018-12-21T10:33:23.174Z,5.50
2018-12-21T10:35:50.986Z,4.40
2018-12-21T10:38:19.193Z,4.20
2018-12-21T10:40:46.780Z,4.10
2018-12-21T10:43:14.314Z,4.30
2018-12-21T10:45:42.138Z,4.20
2018-12-21T10:48:10.255Z,4.00
2018-12-21T10:50:37.813Z,4.20
2018-12-21T10:53:05.814Z,4.20
2018-12-21T10:55:33.433Z,4.20
2018-12-21T10:58:01.237Z,4.60
2018-12-21T11:00:29.080Z,4.90
2018-12-21T11:02:57.165Z,5.10
2018-12-21T11:05:25.026Z,5.50
2018-12-21T11:07:52.980Z,5.50
2018-12-21T11:10:20.555Z,5.40
2018-12-21T11:12:48.409Z,5.60
2018-12-21T11:15:16.296Z,5.60
2018-12-21T11:17:44.174Z,5.80
2018-12-21T11:20:11.855Z,5.90
2018-12-21T11:22:39.631Z,5.80
2018-12-21T11:25:10.002Z,5.90
2018-12-21T11:27:37.690Z,5.40
2018-12-21T11:30:08.135Z,4.80
2018-12-21T11:32:36.658Z,4.30
2018-12-21T11:35:04.803Z,4.30
2018-12-21T11:37:32.798Z,4.40
2018-12-21T11:40:00.530Z,4.40
2018-12-21T11:42:28.188Z,4.30
2018-12-21T11:44:55.784Z,4.20
2018-12-21T11:47:23.531Z,4.20
2018-12-21T11:49:51.347Z,4.30
2018-12-21T11:52:18.893Z,4.30
2018-12-21T11:54:46.933Z,4.80
2018-12-21T11:57:14.494Z,4.40
2018-12-21T11:59:44.966Z,4.30
2018-12-21T12:02:19.293Z,4.10
2018-12-21T12:04:58.911Z,4.20
2018-12-21T12:07:26.911Z,4.30
2018-12-21T12:09:54.836Z,4.30
2018-12-21T12:12:22.467Z,4.20
2018-12-21T12:14:50.311Z,4.10
2018-12-21T12:17:18.344Z,4.30
2018-12-21T12:19:46.082Z,4.00
2018-12-21T12:22:13.821Z,4.40
2018-12-21T12:24:41.371Z,4.60
2018-12-21T12:27:09.129Z,4.60
2018-12-21T12:29:36.719Z,4.70
2018-12-21T12:32:04.253Z,4.60
2018-12-21T12:34:32.137Z,4.90
2018-12-21T12:36:59.726Z,5.10
2018-12-21T12:39:27.459Z,5.40
2018-12-21T12:41:55.121Z,5.70
2018-12-21T12:44:22.907Z,6.00
2018-12-21T12:46:50.628Z,6.00
2018-12-21T12:49:18.327Z,6.20
2018-12-21T12:51:46.605Z,6.10
2018-12-21T12:54:14.658Z,5.90
2018-12-21T12:56:42.310Z,5.50
2018-12-21T12:59:09.913Z,5.50
2018-12-21T13:01:38.058Z,6.30
2018-12-21T13:04:06.135Z,6.30
2018-12-21T13:06:34.257Z,6.30
2018-12-21T13:09:01.798Z,6.40
2018-12-21T13:11:29.487Z,6.30
2018-12-21T13:13:57.259Z,6.30
2018-12-21T13:16:25.030Z,6.40
2018-12-21T13:18:52.899Z,6.40
2018-12-21T13:21:20.807Z,6.30
2018-12-21T13:23:48.706Z,6.40
2018-12-21T13:26:16.281Z,6.30
2018-12-21T13:28:44.227Z,6.20
2018-12-21T13:31:11.785Z,6.20
2018-12-21T13:33:40.091Z,6.20
2018-12-21T13:36:07.800Z,6.20
2018-12-21T13:38:35.598Z,6.10
2018-12-21T13:41:03.311Z,6.30
2018-12-21T13:43:31.536Z,6.20
2018-12-21T13:45:59.073Z,6.20
2018-12-21T13:48:26.608Z,6.20
2018-12-21T13:50:54.197Z,6.30
2018-12-21T13:53:21.825Z,6.10
2018-12-21T13:55:49.385Z,6.10
2018-12-21T13:58:17.411Z,6.10
2018-12-21T14:00:45.154Z,6.00
2018-12-21T14:03:13.018Z,6.00
2018-12-21T14:05:40.780Z,6.00
2018-12-21T14:08:08.326Z,5.80
2018-12-21T14:10:35.874Z,5.70
2018-12-21T14:13:03.483Z,5.70
2018-12-21T14:15:31.551Z,5.60
2018-12-21T14:17:59.622Z,5.60
2018-12-21T14:20:27.206Z,5.70
2018-12-21T14:22:54.848Z,5.60
2018-12-21T14:25:28.856Z,5.60
2018-12-21T14:27:53.365Z,5.60
2018-12-21T14:30:21.391Z,5.50
2018-12-21T14:32:48.967Z,5.50
2018-12-21T14:35:16.542Z,5.60
2018-12-21T14:37:44.082Z,5.60
2018-12-21T14:40:11.657Z,5.60
2018-12-21T14:42:39.592Z,5.60
2018-12-21T14:45:07.265Z,5.60
2018-12-21T14:47:35.440Z,5.60
2018-12-21T14:50:03.871Z,5.70
2018-12-21T14:52:31.651Z,5.50
2018-12-21T14:54:59.211Z,5.40
2018-12-21T14:57:26.999Z,5.30
2018-12-21T14:59:54.947Z,5.00
2018-12-21T15:02:23.047Z,5.10
2018-12-21T15:04:51.011Z,5.00
2018-12-21T15:07:18.981Z,5.70
2018-12-21T15:09:46.743Z,6.20
2018-12-21T15:12:14.782Z,6.20
2018-12-21T15:14:42.396Z,6.10
2018-12-21T15:17:09.936Z,6.00
2018-12-21T15:19:37.533Z,5.80
2018-12-21T15:22:05.070Z,5.70
2018-12-21T15:24:32.600Z,5.70
2018-12-21T15:27:00.466Z,6.20
2018-12-21T15:29:28.431Z,6.30
2018-12-21T15:31:57.161Z,6.50
2018-12-21T15:34:24.738Z,6.30
2018-12-21T15:36:52.549Z,6.30
2018-12-21T15:39:20.312Z,6.50
2018-12-21T15:41:48.090Z,6.80
2018-12-21T15:44:17.167Z,6.60
2018-12-21T15:46:44.934Z,6.40
2018-12-21T15:49:12.513Z,6.40
2018-12-21T15:51:40.268Z,6.40
2018-12-21T15:54:08.107Z,6.50
2018-12-21T15:56:36.343Z,6.60
2018-12-21T15:59:04.266Z,6.70
2018-12-21T16:01:36.890Z,6.60
2018-12-21T16:04:01.618Z,6.50
2018-12-21T16:06:29.196Z,6.30
2018-12-21T16:08:56.902Z,6.40
2018-12-21T16:11:25.131Z,6.30
2018-12-21T16:13:52.797Z,6.20
2018-12-21T16:16:21.056Z,6.00
2018-12-21T16:18:48.625Z,5.90
2018-12-21T16:21:17.658Z,5.90
2018-12-21T16:23:45.470Z,5.90
2018-12-21T16:26:13.212Z,5.80
2018-12-21T16:28:42.137Z,5.70
2018-12-21T16:31:09.924Z,5.80
2018-12-21T16:33:38.532Z,5.70
2018-12-21T16:36:06.326Z,5.60
2018-12-21T16:38:34.747Z,5.50
2018-12-21T16:41:02.829Z,5.50
2018-12-21T16:43:30.407Z,5.50
2018-12-21T16:45:58.103Z,5.40
2018-12-21T16:48:28.274Z,5.40
2018-12-21T16:50:56.509Z,5.50
2018-12-21T16:53:24.081Z,5.50
2018-12-21T16:55:51.662Z,5.50
2018-12-21T16:58:19.476Z,5.50
2018-12-21T17:00:47.019Z,5.90
2018-12-21T17:03:15.758Z,5.90
2018-12-21T17:05:45.669Z,6.00
2018-12-21T17:08:13.445Z,5.90
2018-12-21T17:10:41.055Z,5.80
2018-12-21T17:13:08.612Z,5.90
2018-12-21T17:15:36.583Z,5.90
2018-12-21T17:18:04.670Z,6.10
2018-12-21T17:20:32.202Z,6.10
2018-12-21T17:23:00.807Z,5.90
2018-12-21T17:25:29.564Z,5.90
2018-12-21T17:27:57.335Z,6.30
2018-12-21T17:30:25.218Z,6.30
2018-12-21T17:32:52.987Z,6.40
2018-12-21T17:35:20.912Z,6.40
2018-12-21T17:37:48.669Z,6.30
2018-12-21T17:40:16.245Z,6.30
2018-12-21T17:42:44.423Z,6.40
2018-12-21T17:45:12.623Z,6.30
2018-12-21T17:47:40.900Z,6.10
2018-12-21T17:50:08.603Z,6.20
2018-12-21T17:52:36.499Z,6.10
2018-12-21T17:55:05.192Z,6.10
2018-12-21T17:57:32.750Z,6.20
2018-12-21T18:00:00.519Z,6.30
2018-12-21T18:02:28.895Z,6.30
2018-12-21T18:04:56.438Z,6.20
2018-12-21T18:07:26.080Z,6.30
2018-12-21T18:09:53.669Z,6.00
2018-12-21T18:12:22.000Z,5.90
2018-12-21T18:14:49.965Z,6.00
2018-12-21T18:17:17.566Z,6.10
2018-12-21T18:19:46.272Z,6.70
2018-12-21T18:22:14.149Z,6.50
2018-12-21T18:24:42.209Z,6.30
2018-12-21T18:27:09.773Z,6.30
2018-12-21T18:29:37.546Z,6.30
2018-12-21T18:32:05.762Z,6.30
2018-12-21T18:34:36.347Z,6.30
2018-12-21T18:37:04.336Z,6.00
2018-12-21T18:39:32.450Z,6.00
2018-12-21T18:42:00.119Z,6.30
2018-12-21T18:44:29.538Z,6.20
2018-12-21T18:46:58.457Z,6.60
2018-12-21T18:49:26.752Z,6.50
2018-12-21T18:51:55.625Z,6.50
2018-12-21T18:54:24.919Z,6.80
2018-12-21T18:56:54.085Z,6.70
2018-12-21T18:59:23.377Z,6.60
2018-12-21T19:01:50.970Z,6.70
2018-12-21T19:04:18.841Z,6.80
2018-12-21T19:06:46.397Z,6.80
2018-12-21T19:09:14.869Z,6.70
2018-12-21T19:11:44.077Z,6.80
2018-12-21T19:14:13.271Z,6.60
2018-12-21T19:16:41.544Z,6.20
2018-12-21T19:19:09.604Z,6.40
2018-12-21T19:21:37.921Z,6.60
2018-12-21T19:24:05.859Z,6.80
2018-12-21T19:26:33.772Z,6.60
2018-12-21T19:29:01.339Z,6.50
2018-12-21T19:31:29.878Z,6.50
2018-12-21T19:33:58.242Z,6.40
2018-12-21T19:36:25.818Z,6.40
2018-12-21T19:38:54.282Z,6.40
2018-12-21T19:41:21.873Z,6.60
2018-12-21T19:43:49.431Z,6.50
2018-12-21T19:46:17.151Z,6.40
2018-12-21T19:48:44.694Z,6.30
2018-12-21T19:51:12.237Z,6.20
2018-12-21T19:53:39.878Z,6.00
2018-12-21T19:56:12.009Z,5.80
2018-12-21T19:58:39.578Z,6.10
2018-12-21T20:01:07.198Z,6.20
2018-12-21T20:03:34.738Z,6.50
2018-12-21T20:06:02.620Z,6.40
2018-12-21T20:08:30.212Z,6.40
2018-12-21T20:10:58.375Z,6.30
2018-12-21T20:13:26.145Z,6.40
2018-12-21T20:15:55.752Z,6.30
2018-12-21T20:18:23.816Z,6.20
2018-12-21T20:20:51.389Z,6.10
2018-12-21T20:23:19.134Z,6.20
2018-12-21T20:25:46.800Z,6.10
2018-12-21T20:28:14.660Z,6.10
2018-12-21T20:30:44.969Z,5.80
2018-12-21T20:33:12.776Z,5.70
2018-12-21T20:35:40.433Z,5.70
2018-12-21T20:38:08.147Z,5.50
2018-12-21T20:40:36.492Z,5.60
2018-12-21T20:43:04.619Z,5.50
2018-12-21T20:45:32.586Z,5.30
2018-12-21T20:48:00.326Z,5.20
2018-12-21T20:50:27.866Z,5.20
2018-12-21T20:52:55.613Z,5.00
2018-12-21T20:55:23.540Z,5.00
2018-12-21T20:57:51.466Z,4.90
2018-12-21T21:00:19.580Z,4.90
2018-12-21T21:02:47.439Z,4.80
2018-12-21T21:05:15.166Z,4.60
2018-12-21T21:07:42.761Z,4.50
2018-12-21T21:10:11.782Z,4.40
2018-12-21T21:12:39.535Z,4.40
2018-12-21T21:15:10.552Z,4.30
2018-12-21T21:17:38.543Z,4.20
2018-12-21T21:20:10.566Z,4.20
2018-12-21T21:22:38.450Z,4.20
2018-12-21T21:25:06.916Z,4.10
2018-12-21T21:27:34.602Z,4.10
2018-12-21T21:30:02.506Z,4.00
2018-12-21T21:32:30.047Z,3.70
2018-12-21T21:34:58.087Z,3.70
2018-12-21T21:37:25.748Z,3.60
2018-12-21T21:39:53.290Z,3.70
2018-12-21T21:42:21.318Z,3.70
2018-12-21T21:44:49.168Z,3.60
